sensor_id;sensor_type;location;lat;lon;timestamp;P1;durP1;ratioP1;P2;durP2;ratioP2
74158;SDS011;62511;47.970;11.774;2023-08-17T00:02:10;7.38;;;4.82;;
74158;SDS011;62511;47.970;11.774;2023-08-17T00:04:37;8.40;;;5.10;;
74158;SDS011;62511;47.970;11.774;2023-08-17T00:07:24;7.07;;;4.10;;
74158;SDS011;62511;47.970;11.774;2023-08-17T00:09:50;8.45;;;4.22;;
74158;SDS011;62511;47.970;11.774;2023-08-17T00:12:20;5.60;;;3.95;;
74158;SDS011;62511;47.970;11.774;2023-08-17T00:14:49;5.38;;;4.13;;
74158;SDS011;62511;47.970;11.774;2023-08-17T00:17:37;6.05;;;4.70;;
74158;SDS011;62511;47.970;11.774;2023-08-17T00:20:13;8.02;;;4.47;;
74158;SDS011;62511;47.970;11.774;2023-08-17T00:22:43;6.88;;;4.47;;
74158;SDS011;62511;47.970;11.774;2023-08-17T00:25:09;6.45;;;4.60;;
74158;SDS011;62511;47.970;11.774;2023-08-17T00:27:36;5.32;;;4.20;;
74158;SDS011;62511;47.970;11.774;2023-08-17T00:30:07;8.40;;;4.90;;
74158;SDS011;62511;47.970;11.774;2023-08-17T00:33:02;6.25;;;4.10;;
74158;SDS011;62511;47.970;11.774;2023-08-17T00:35:29;7.88;;;4.22;;
74158;SDS011;62511;47.970;11.774;2023-08-17T00:37:58;6.80;;;4.50;;
74158;SDS011;62511;47.970;11.774;2023-08-17T00:43:15;6.45;;;3.88;;
74158;SDS011;62511;47.970;11.774;2023-08-17T00:49:05;5.90;;;4.10;;
74158;SDS011;62511;47.970;11.774;2023-08-17T00:54:03;6.15;;;4.10;;
74158;SDS011;62511;47.970;11.774;2023-08-17T00:57:14;6.00;;;4.20;;
74158;SDS011;62511;47.970;11.774;2023-08-17T00:59:57;9.15;;;4.25;;
74158;SDS011;62511;47.970;11.774;2023-08-17T01:02:31;11.57;;;5.18;;
74158;SDS011;62511;47.970;11.774;2023-08-17T01:05:00;6.75;;;4.88;;
74158;SDS011;62511;47.970;11.774;2023-08-17T01:07:26;9.48;;;4.60;;
74158;SDS011;62511;47.970;11.774;2023-08-17T01:09:58;6.75;;;4.40;;
74158;SDS011;62511;47.970;11.774;2023-08-17T01:12:30;6.18;;;4.43;;
74158;SDS011;62511;47.970;11.774;2023-08-17T01:17:42;5.25;;;4.00;;
74158;SDS011;62511;47.970;11.774;2023-08-17T01:20:44;6.43;;;4.07;;
74158;SDS011;62511;47.970;11.774;2023-08-17T01:23:22;5.20;;;4.30;;
74158;SDS011;62511;47.970;11.774;2023-08-17T01:25:57;8.13;;;4.82;;
74158;SDS011;62511;47.970;11.774;2023-08-17T01:28:27;8.75;;;5.07;;
74158;SDS011;62511;47.970;11.774;2023-08-17T01:31:08;7.15;;;4.93;;
74158;SDS011;62511;47.970;11.774;2023-08-17T01:33:40;7.55;;;4.95;;
74158;SDS011;62511;47.970;11.774;2023-08-17T01:36:36;5.72;;;4.40;;
74158;SDS011;62511;47.970;11.774;2023-08-17T01:41:44;4.70;;;3.42;;
74158;SDS011;62511;47.970;11.774;2023-08-17T01:44:14;7.97;;;3.80;;
74158;SDS011;62511;47.970;11.774;2023-08-17T01:46:46;5.45;;;4.13;;
74158;SDS011;62511;47.970;11.774;2023-08-17T01:52:28;6.13;;;3.88;;
74158;SDS011;62511;47.970;11.774;2023-08-17T01:54:55;6.45;;;4.15;;
74158;SDS011;62511;47.970;11.774;2023-08-17T01:57:42;5.75;;;4.30;;
74158;SDS011;62511;47.970;11.774;2023-08-17T02:00:29;7.22;;;4.45;;
74158;SDS011;62511;47.970;11.774;2023-08-17T02:02:55;7.50;;;5.03;;
74158;SDS011;62511;47.970;11.774;2023-08-17T02:05:25;10.05;;;5.57;;
74158;SDS011;62511;47.970;11.774;2023-08-17T02:07:53;6.53;;;4.97;;
74158;SDS011;62511;47.970;11.774;2023-08-17T02:10:24;7.15;;;4.60;;
74158;SDS011;62511;47.970;11.774;2023-08-17T02:13:12;6.32;;;5.10;;
74158;SDS011;62511;47.970;11.774;2023-08-17T02:15:49;5.78;;;4.05;;
74158;SDS011;62511;47.970;11.774;2023-08-17T02:18:26;6.55;;;4.35;;
74158;SDS011;62511;47.970;11.774;2023-08-17T02:20:57;6.22;;;3.83;;
74158;SDS011;62511;47.970;11.774;2023-08-17T02:26:16;6.70;;;5.32;;
74158;SDS011;62511;47.970;11.774;2023-08-17T02:28:56;7.50;;;4.97;;
74158;SDS011;62511;47.970;11.774;2023-08-17T02:31:27;9.18;;;5.00;;
74158;SDS011;62511;47.970;11.774;2023-08-17T02:33:54;9.43;;;5.38;;
74158;SDS011;62511;47.970;11.774;2023-08-17T02:36:39;8.48;;;4.57;;
74158;SDS011;62511;47.970;11.774;2023-08-17T02:39:05;6.10;;;4.57;;
74158;SDS011;62511;47.970;11.774;2023-08-17T02:44:13;8.20;;;4.97;;
74158;SDS011;62511;47.970;11.774;2023-08-17T02:46:59;8.27;;;5.45;;
74158;SDS011;62511;47.970;11.774;2023-08-17T02:49:45;12.10;;;5.70;;
74158;SDS011;62511;47.970;11.774;2023-08-17T02:52:14;8.00;;;5.25;;
74158;SDS011;62511;47.970;11.774;2023-08-17T02:54:48;7.47;;;5.05;;
74158;SDS011;62511;47.970;11.774;2023-08-17T02:57:16;12.00;;;5.68;;
74158;SDS011;62511;47.970;11.774;2023-08-17T02:59:58;8.48;;;6.05;;
74158;SDS011;62511;47.970;11.774;2023-08-17T03:03:03;10.68;;;6.10;;
74158;SDS011;62511;47.970;11.774;2023-08-17T03:05:30;11.30;;;6.22;;
74158;SDS011;62511;47.970;11.774;2023-08-17T03:07:56;8.02;;;5.60;;
74158;SDS011;62511;47.970;11.774;2023-08-17T03:10:34;7.88;;;5.50;;
74158;SDS011;62511;47.970;11.774;2023-08-17T03:13:03;8.02;;;5.50;;
74158;SDS011;62511;47.970;11.774;2023-08-17T03:15:35;8.55;;;5.93;;
74158;SDS011;62511;47.970;11.774;2023-08-17T03:18:04;8.65;;;5.97;;
74158;SDS011;62511;47.970;11.774;2023-08-17T03:20:32;9.00;;;5.35;;
74158;SDS011;62511;47.970;11.774;2023-08-17T03:22:58;9.38;;;5.95;;
74158;SDS011;62511;47.970;11.774;2023-08-17T03:25:31;7.60;;;5.03;;
74158;SDS011;62511;47.970;11.774;2023-08-17T03:28:03;7.30;;;5.15;;
74158;SDS011;62511;47.970;11.774;2023-08-17T03:30:38;9.38;;;5.28;;
74158;SDS011;62511;47.970;11.774;2023-08-17T03:33:42;7.78;;;5.22;;
74158;SDS011;62511;47.970;11.774;2023-08-17T03:36:10;9.00;;;5.28;;
74158;SDS011;62511;47.970;11.774;2023-08-17T03:38:50;7.40;;;5.28;;
74158;SDS011;62511;47.970;11.774;2023-08-17T03:41:21;8.65;;;5.50;;
74158;SDS011;62511;47.970;11.774;2023-08-17T03:43:54;8.68;;;6.30;;
74158;SDS011;62511;47.970;11.774;2023-08-17T03:46:25;6.63;;;4.70;;
74158;SDS011;62511;47.970;11.774;2023-08-17T03:48:51;6.75;;;4.95;;
74158;SDS011;62511;47.970;11.774;2023-08-17T03:51:18;6.53;;;5.05;;
74158;SDS011;62511;47.970;11.774;2023-08-17T03:53:47;7.13;;;5.32;;
74158;SDS011;62511;47.970;11.774;2023-08-17T03:56:17;8.75;;;5.72;;
74158;SDS011;62511;47.970;11.774;2023-08-17T03:59:14;9.30;;;5.63;;
74158;SDS011;62511;47.970;11.774;2023-08-17T04:01:42;8.95;;;5.22;;
74158;SDS011;62511;47.970;11.774;2023-08-17T04:04:18;7.50;;;5.68;;
74158;SDS011;62511;47.970;11.774;2023-08-17T04:07:02;6.53;;;4.80;;
74158;SDS011;62511;47.970;11.774;2023-08-17T04:09:33;8.45;;;5.35;;
74158;SDS011;62511;47.970;11.774;2023-08-17T04:12:16;6.90;;;4.78;;
74158;SDS011;62511;47.970;11.774;2023-08-17T04:14:44;7.70;;;4.68;;
74158;SDS011;62511;47.970;11.774;2023-08-17T04:17:11;7.38;;;5.10;;
74158;SDS011;62511;47.970;11.774;2023-08-17T04:19:37;8.15;;;5.15;;
74158;SDS011;62511;47.970;11.774;2023-08-17T04:22:04;9.27;;;6.10;;
74158;SDS011;62511;47.970;11.774;2023-08-17T04:24:36;8.52;;;5.88;;
74158;SDS011;62511;47.970;11.774;2023-08-17T04:27:17;8.30;;;6.05;;
74158;SDS011;62511;47.970;11.774;2023-08-17T04:32:21;5.90;;;4.60;;
74158;SDS011;62511;47.970;11.774;2023-08-17T04:35:08;6.68;;;4.97;;
74158;SDS011;62511;47.970;11.774;2023-08-17T04:37:55;6.70;;;5.22;;
74158;SDS011;62511;47.970;11.774;2023-08-17T04:40:30;7.47;;;5.38;;
74158;SDS011;62511;47.970;11.774;2023-08-17T04:43:00;6.82;;;4.72;;
74158;SDS011;62511;47.970;11.774;2023-08-17T04:45:29;6.38;;;5.28;;
74158;SDS011;62511;47.970;11.774;2023-08-17T04:47:56;6.35;;;4.78;;
74158;SDS011;62511;47.970;11.774;2023-08-17T04:50:24;6.50;;;4.80;;
74158;SDS011;62511;47.970;11.774;2023-08-17T04:52:53;7.78;;;5.47;;
74158;SDS011;62511;47.970;11.774;2023-08-17T04:55:22;5.85;;;4.90;;
74158;SDS011;62511;47.970;11.774;2023-08-17T04:57:54;10.10;;;5.30;;
74158;SDS011;62511;47.970;11.774;2023-08-17T05:00:43;7.28;;;5.15;;
74158;SDS011;62511;47.970;11.774;2023-08-17T05:03:29;6.00;;;4.45;;
74158;SDS011;62511;47.970;11.774;2023-08-17T05:05:59;6.78;;;4.95;;
74158;SDS011;62511;47.970;11.774;2023-08-17T05:08:26;8.45;;;4.85;;
74158;SDS011;62511;47.970;11.774;2023-08-17T05:10:55;5.65;;;5.07;;
74158;SDS011;62511;47.970;11.774;2023-08-17T05:13:27;8.30;;;5.13;;
74158;SDS011;62511;47.970;11.774;2023-08-17T05:15:56;7.60;;;5.57;;
74158;SDS011;62511;47.970;11.774;2023-08-17T05:21:13;6.07;;;4.80;;
74158;SDS011;62511;47.970;11.774;2023-08-17T05:23:42;7.20;;;4.65;;
74158;SDS011;62511;47.970;11.774;2023-08-17T05:26:09;7.82;;;4.78;;
74158;SDS011;62511;47.970;11.774;2023-08-17T05:28:35;5.25;;;4.38;;
74158;SDS011;62511;47.970;11.774;2023-08-17T05:31:05;5.53;;;3.90;;
74158;SDS011;62511;47.970;11.774;2023-08-17T05:33:32;5.85;;;4.15;;
74158;SDS011;62511;47.970;11.774;2023-08-17T05:39:03;5.72;;;4.53;;
74158;SDS011;62511;47.970;11.774;2023-08-17T05:41:49;5.85;;;3.72;;
74158;SDS011;62511;47.970;11.774;2023-08-17T05:44:26;5.45;;;4.60;;
74158;SDS011;62511;47.970;11.774;2023-08-17T05:47:16;6.97;;;4.18;;
74158;SDS011;62511;47.970;11.774;2023-08-17T05:49:50;5.40;;;4.00;;
74158;SDS011;62511;47.970;11.774;2023-08-17T05:52:28;5.43;;;4.25;;
74158;SDS011;62511;47.970;11.774;2023-08-17T05:55:02;4.88;;;4.20;;
74158;SDS011;62511;47.970;11.774;2023-08-17T05:57:41;4.00;;;3.60;;
74158;SDS011;62511;47.970;11.774;2023-08-17T06:00:07;5.22;;;3.92;;
74158;SDS011;62511;47.970;11.774;2023-08-17T06:02:38;5.38;;;4.20;;
74158;SDS011;62511;47.970;11.774;2023-08-17T06:05:16;7.43;;;4.40;;
74158;SDS011;62511;47.970;11.774;2023-08-17T06:07:57;7.65;;;4.50;;
74158;SDS011;62511;47.970;11.774;2023-08-17T06:11:05;5.28;;;4.00;;
74158;SDS011;62511;47.970;11.774;2023-08-17T06:13:34;4.63;;;4.07;;
74158;SDS011;62511;47.970;11.774;2023-08-17T06:16:07;7.20;;;4.03;;
74158;SDS011;62511;47.970;11.774;2023-08-17T06:18:57;5.00;;;4.47;;
74158;SDS011;62511;47.970;11.774;2023-08-17T06:21:45;4.43;;;3.88;;
74158;SDS011;62511;47.970;11.774;2023-08-17T06:24:14;5.05;;;4.53;;
74158;SDS011;62511;47.970;11.774;2023-08-17T06:26:43;9.90;;;3.80;;
74158;SDS011;62511;47.970;11.774;2023-08-17T06:29:39;4.35;;;3.53;;
74158;SDS011;62511;47.970;11.774;2023-08-17T06:32:14;7.35;;;4.40;;
74158;SDS011;62511;47.970;11.774;2023-08-17T06:34:42;5.95;;;3.90;;
74158;SDS011;62511;47.970;11.774;2023-08-17T06:37:12;4.35;;;3.63;;
74158;SDS011;62511;47.970;11.774;2023-08-17T06:39:53;4.82;;;3.67;;
74158;SDS011;62511;47.970;11.774;2023-08-17T06:42:24;5.20;;;3.67;;
74158;SDS011;62511;47.970;11.774;2023-08-17T06:44:50;5.10;;;3.72;;
74158;SDS011;62511;47.970;11.774;2023-08-17T06:47:33;6.13;;;4.15;;
74158;SDS011;62511;47.970;11.774;2023-08-17T06:50:21;4.22;;;3.58;;
74158;SDS011;62511;47.970;11.774;2023-08-17T06:52:48;4.32;;;3.67;;
74158;SDS011;62511;47.970;11.774;2023-08-17T06:55:26;5.47;;;3.90;;
74158;SDS011;62511;47.970;11.774;2023-08-17T06:58:04;5.68;;;3.70;;
74158;SDS011;62511;47.970;11.774;2023-08-17T07:00:33;4.85;;;4.07;;
74158;SDS011;62511;47.970;11.774;2023-08-17T07:03:09;5.57;;;4.00;;
74158;SDS011;62511;47.970;11.774;2023-08-17T07:05:41;5.65;;;3.80;;
74158;SDS011;62511;47.970;11.774;2023-08-17T07:08:07;5.95;;;3.97;;
74158;SDS011;62511;47.970;11.774;2023-08-17T07:10:35;5.80;;;4.00;;
74158;SDS011;62511;47.970;11.774;2023-08-17T07:13:09;4.72;;;3.85;;
74158;SDS011;62511;47.970;11.774;2023-08-17T07:15:40;4.15;;;3.15;;
74158;SDS011;62511;47.970;11.774;2023-08-17T07:18:07;6.72;;;3.65;;
74158;SDS011;62511;47.970;11.774;2023-08-17T07:20:52;3.63;;;3.22;;
74158;SDS011;62511;47.970;11.774;2023-08-17T07:23:19;4.90;;;3.67;;
74158;SDS011;62511;47.970;11.774;2023-08-17T07:25:51;5.15;;;3.55;;
74158;SDS011;62511;47.970;11.774;2023-08-17T07:28:46;6.15;;;3.60;;
74158;SDS011;62511;47.970;11.774;2023-08-17T07:31:25;5.90;;;3.00;;
74158;SDS011;62511;47.970;11.774;2023-08-17T07:33:52;4.03;;;3.35;;
74158;SDS011;62511;47.970;11.774;2023-08-17T07:36:53;5.65;;;2.97;;
74158;SDS011;62511;47.970;11.774;2023-08-17T07:39:25;4.18;;;3.13;;
74158;SDS011;62511;47.970;11.774;2023-08-17T07:41:52;7.28;;;3.13;;
74158;SDS011;62511;47.970;11.774;2023-08-17T07:44:21;3.90;;;3.08;;
74158;SDS011;62511;47.970;11.774;2023-08-17T07:46:53;4.53;;;3.13;;
74158;SDS011;62511;47.970;11.774;2023-08-17T07:49:19;4.30;;;3.20;;
74158;SDS011;62511;47.970;11.774;2023-08-17T07:51:54;3.63;;;3.20;;
74158;SDS011;62511;47.970;11.774;2023-08-17T07:54:29;3.67;;;2.97;;
74158;SDS011;62511;47.970;11.774;2023-08-17T07:59:42;3.40;;;2.88;;
74158;SDS011;62511;47.970;11.774;2023-08-17T08:02:08;4.68;;;2.80;;
74158;SDS011;62511;47.970;11.774;2023-08-17T08:04:36;5.38;;;3.40;;
74158;SDS011;62511;47.970;11.774;2023-08-17T08:07:03;4.20;;;2.85;;
74158;SDS011;62511;47.970;11.774;2023-08-17T08:09:29;4.28;;;2.63;;
74158;SDS011;62511;47.970;11.774;2023-08-17T08:11:57;3.25;;;2.95;;
74158;SDS011;62511;47.970;11.774;2023-08-17T08:14:28;11.43;;;7.00;;
74158;SDS011;62511;47.970;11.774;2023-08-17T08:17:20;4.20;;;3.17;;
74158;SDS011;62511;47.970;11.774;2023-08-17T08:20:21;5.30;;;3.10;;
74158;SDS011;62511;47.970;11.774;2023-08-17T08:23:05;3.50;;;3.00;;
74158;SDS011;62511;47.970;11.774;2023-08-17T08:25:34;4.13;;;2.90;;
74158;SDS011;62511;47.970;11.774;2023-08-17T08:28:03;4.53;;;2.95;;
74158;SDS011;62511;47.970;11.774;2023-08-17T08:30:30;4.63;;;3.30;;
74158;SDS011;62511;47.970;11.774;2023-08-17T08:33:05;4.53;;;3.20;;
74158;SDS011;62511;47.970;11.774;2023-08-17T08:35:32;4.55;;;2.83;;
74158;SDS011;62511;47.970;11.774;2023-08-17T08:38:14;4.35;;;3.13;;
74158;SDS011;62511;47.970;11.774;2023-08-17T08:40:40;3.92;;;3.15;;
74158;SDS011;62511;47.970;11.774;2023-08-17T08:43:17;3.38;;;3.08;;
74158;SDS011;62511;47.970;11.774;2023-08-17T08:45:48;3.90;;;3.50;;
74158;SDS011;62511;47.970;11.774;2023-08-17T08:48:16;3.88;;;3.10;;
74158;SDS011;62511;47.970;11.774;2023-08-17T08:50:50;4.25;;;3.22;;
74158;SDS011;62511;47.970;11.774;2023-08-17T08:53:45;4.65;;;3.45;;
74158;SDS011;62511;47.970;11.774;2023-08-17T08:56:15;3.80;;;3.40;;
74158;SDS011;62511;47.970;11.774;2023-08-17T08:58:51;3.22;;;2.83;;
74158;SDS011;62511;47.970;11.774;2023-08-17T09:01:17;4.43;;;3.38;;
74158;SDS011;62511;47.970;11.774;2023-08-17T09:04:07;3.85;;;3.45;;
74158;SDS011;62511;47.970;11.774;2023-08-17T09:06:46;5.18;;;3.22;;
74158;SDS011;62511;47.970;11.774;2023-08-17T09:09:31;3.53;;;3.00;;
74158;SDS011;62511;47.970;11.774;2023-08-17T09:12:07;3.70;;;3.35;;
74158;SDS011;62511;47.970;11.774;2023-08-17T09:14:35;4.63;;;3.00;;
74158;SDS011;62511;47.970;11.774;2023-08-17T09:17:07;4.05;;;3.47;;
74158;SDS011;62511;47.970;11.774;2023-08-17T09:19:37;3.90;;;3.40;;
74158;SDS011;62511;47.970;11.774;2023-08-17T09:22:03;4.10;;;3.30;;
74158;SDS011;62511;47.970;11.774;2023-08-17T09:24:55;5.38;;;3.75;;
74158;SDS011;62511;47.970;11.774;2023-08-17T09:30:31;4.43;;;3.25;;
74158;SDS011;62511;47.970;11.774;2023-08-17T09:33:01;5.55;;;3.17;;
74158;SDS011;62511;47.970;11.774;2023-08-17T09:35:31;3.42;;;3.00;;
74158;SDS011;62511;47.970;11.774;2023-08-17T09:38:08;4.38;;;3.45;;
74158;SDS011;62511;47.970;11.774;2023-08-17T09:40:34;4.80;;;3.60;;
74158;SDS011;62511;47.970;11.774;2023-08-17T09:43:20;4.10;;;3.80;;
74158;SDS011;62511;47.970;11.774;2023-08-17T09:45:59;4.05;;;3.65;;
74158;SDS011;62511;47.970;11.774;2023-08-17T09:48:31;6.88;;;4.28;;
74158;SDS011;62511;47.970;11.774;2023-08-17T09:51:19;5.03;;;3.50;;
74158;SDS011;62511;47.970;11.774;2023-08-17T09:54:07;4.65;;;3.95;;
74158;SDS011;62511;47.970;11.774;2023-08-17T09:56:39;5.05;;;4.07;;
74158;SDS011;62511;47.970;11.774;2023-08-17T09:59:24;5.03;;;3.60;;
74158;SDS011;62511;47.970;11.774;2023-08-17T10:01:54;5.22;;;4.72;;
74158;SDS011;62511;47.970;11.774;2023-08-17T10:04:26;4.88;;;4.03;;
74158;SDS011;62511;47.970;11.774;2023-08-17T10:06:56;4.95;;;4.10;;
74158;SDS011;62511;47.970;11.774;2023-08-17T10:09:42;4.75;;;3.45;;
74158;SDS011;62511;47.970;11.774;2023-08-17T10:12:10;4.97;;;4.00;;
74158;SDS011;62511;47.970;11.774;2023-08-17T10:14:46;5.60;;;4.00;;
74158;SDS011;62511;47.970;11.774;2023-08-17T10:17:27;4.72;;;4.30;;
74158;SDS011;62511;47.970;11.774;2023-08-17T10:20:00;5.00;;;4.00;;
74158;SDS011;62511;47.970;11.774;2023-08-17T10:25:20;4.47;;;4.07;;
74158;SDS011;62511;47.970;11.774;2023-08-17T10:30:24;5.43;;;4.07;;
74158;SDS011;62511;47.970;11.774;2023-08-17T10:32:58;5.00;;;3.97;;
74158;SDS011;62511;47.970;11.774;2023-08-17T10:35:25;5.18;;;4.38;;
74158;SDS011;62511;47.970;11.774;2023-08-17T10:37:57;5.97;;;4.10;;
74158;SDS011;62511;47.970;11.774;2023-08-17T10:40:27;5.00;;;4.50;;
74158;SDS011;62511;47.970;11.774;2023-08-17T10:42:54;5.28;;;4.45;;
74158;SDS011;62511;47.970;11.774;2023-08-17T10:45:34;4.40;;;4.00;;
74158;SDS011;62511;47.970;11.774;2023-08-17T10:48:24;4.07;;;3.60;;
74158;SDS011;62511;47.970;11.774;2023-08-17T10:50:59;4.20;;;3.63;;
74158;SDS011;62511;47.970;11.774;2023-08-17T10:53:45;4.28;;;3.50;;
74158;SDS011;62511;47.970;11.774;2023-08-17T10:56:18;5.00;;;4.03;;
74158;SDS011;62511;47.970;11.774;2023-08-17T10:58:45;4.47;;;3.83;;
74158;SDS011;62511;47.970;11.774;2023-08-17T11:01:41;4.45;;;3.80;;
74158;SDS011;62511;47.970;11.774;2023-08-17T11:04:12;4.75;;;4.10;;
74158;SDS011;62511;47.970;11.774;2023-08-17T11:06:44;6.18;;;3.92;;
74158;SDS011;62511;47.970;11.774;2023-08-17T11:09:37;4.15;;;3.75;;
74158;SDS011;62511;47.970;11.774;2023-08-17T11:12:03;4.45;;;3.97;;
74158;SDS011;62511;47.970;11.774;2023-08-17T11:14:35;5.38;;;3.72;;
74158;SDS011;62511;47.970;11.774;2023-08-17T11:17:05;5.40;;;4.07;;
74158;SDS011;62511;47.970;11.774;2023-08-17T11:19:32;3.97;;;3.53;;
74158;SDS011;62511;47.970;11.774;2023-08-17T11:22:01;4.78;;;3.85;;
74158;SDS011;62511;47.970;11.774;2023-08-17T11:24:27;4.72;;;4.00;;
74158;SDS011;62511;47.970;11.774;2023-08-17T11:27:04;3.88;;;3.38;;
74158;SDS011;62511;47.970;11.774;2023-08-17T11:29:31;4.65;;;4.10;;
74158;SDS011;62511;47.970;11.774;2023-08-17T11:31:57;5.65;;;4.10;;
74158;SDS011;62511;47.970;11.774;2023-08-17T11:34:32;5.18;;;3.92;;
74158;SDS011;62511;47.970;11.774;2023-08-17T11:37:00;4.38;;;3.83;;
74158;SDS011;62511;47.970;11.774;2023-08-17T11:39:34;4.22;;;3.83;;
74158;SDS011;62511;47.970;11.774;2023-08-17T11:42:03;4.82;;;3.92;;
74158;SDS011;62511;47.970;11.774;2023-08-17T11:44:30;4.50;;;4.10;;
74158;SDS011;62511;47.970;11.774;2023-08-17T11:46:56;5.13;;;3.80;;
74158;SDS011;62511;47.970;11.774;2023-08-17T11:49:25;5.03;;;4.35;;
74158;SDS011;62511;47.970;11.774;2023-08-17T11:51:56;4.18;;;3.78;;
74158;SDS011;62511;47.970;11.774;2023-08-17T11:54:42;4.30;;;3.83;;
74158;SDS011;62511;47.970;11.774;2023-08-17T11:57:08;5.03;;;3.40;;
74158;SDS011;62511;47.970;11.774;2023-08-17T11:59:41;5.28;;;3.97;;
74158;SDS011;62511;47.970;11.774;2023-08-17T12:02:09;4.93;;;4.40;;
74158;SDS011;62511;47.970;11.774;2023-08-17T12:04:39;4.95;;;3.42;;
74158;SDS011;62511;47.970;11.774;2023-08-17T12:07:10;6.20;;;4.13;;
74158;SDS011;62511;47.970;11.774;2023-08-17T12:09:46;4.88;;;4.03;;
74158;SDS011;62511;47.970;11.774;2023-08-17T12:12:18;4.93;;;3.90;;
74158;SDS011;62511;47.970;11.774;2023-08-17T12:14:48;4.53;;;4.00;;
74158;SDS011;62511;47.970;11.774;2023-08-17T12:17:14;5.50;;;4.10;;
74158;SDS011;62511;47.970;11.774;2023-08-17T12:19:42;5.30;;;4.30;;
74158;SDS011;62511;47.970;11.774;2023-08-17T12:22:12;4.95;;;4.28;;
74158;SDS011;62511;47.970;11.774;2023-08-17T12:24:38;5.18;;;3.58;;
74158;SDS011;62511;47.970;11.774;2023-08-17T12:27:06;5.85;;;4.47;;
74158;SDS011;62511;47.970;11.774;2023-08-17T12:32:45;5.28;;;3.85;;
74158;SDS011;62511;47.970;11.774;2023-08-17T12:35:12;6.13;;;4.13;;
74158;SDS011;62511;47.970;11.774;2023-08-17T12:37:38;5.85;;;4.47;;
74158;SDS011;62511;47.970;11.774;2023-08-17T12:40:06;4.47;;;4.07;;
74158;SDS011;62511;47.970;11.774;2023-08-17T12:42:38;4.05;;;3.67;;
74158;SDS011;62511;47.970;11.774;2023-08-17T12:45:10;4.28;;;3.88;;
74158;SDS011;62511;47.970;11.774;2023-08-17T12:47:39;4.50;;;3.72;;
74158;SDS011;62511;47.970;11.774;2023-08-17T12:50:06;4.30;;;3.90;;
74158;SDS011;62511;47.970;11.774;2023-08-17T12:52:38;4.65;;;3.58;;
74158;SDS011;62511;47.970;11.774;2023-08-17T12:55:06;4.45;;;3.97;;
74158;SDS011;62511;47.970;11.774;2023-08-17T12:57:37;4.15;;;3.72;;
74158;SDS011;62511;47.970;11.774;2023-08-17T13:00:03;4.97;;;3.20;;
74158;SDS011;62511;47.970;11.774;2023-08-17T13:02:29;4.68;;;3.63;;
74158;SDS011;62511;47.970;11.774;2023-08-17T13:05:04;4.43;;;3.95;;
74158;SDS011;62511;47.970;11.774;2023-08-17T13:07:37;4.78;;;3.85;;
74158;SDS011;62511;47.970;11.774;2023-08-17T13:10:08;3.92;;;3.53;;
74158;SDS011;62511;47.970;11.774;2023-08-17T13:12:36;5.03;;;3.78;;
74158;SDS011;62511;47.970;11.774;2023-08-17T13:15:11;5.22;;;4.00;;
74158;SDS011;62511;47.970;11.774;2023-08-17T13:17:37;4.55;;;3.67;;
74158;SDS011;62511;47.970;11.774;2023-08-17T13:20:29;4.30;;;3.88;;
74158;SDS011;62511;47.970;11.774;2023-08-17T13:23:00;4.95;;;3.25;;
74158;SDS011;62511;47.970;11.774;2023-08-17T13:25:26;4.93;;;3.65;;
74158;SDS011;62511;47.970;11.774;2023-08-17T13:27:58;3.78;;;3.40;;
74158;SDS011;62511;47.970;11.774;2023-08-17T13:30:24;5.22;;;3.47;;
74158;SDS011;62511;47.970;11.774;2023-08-17T13:35:55;5.00;;;3.45;;
74158;SDS011;62511;47.970;11.774;2023-08-17T13:38:27;4.70;;;3.30;;
74158;SDS011;62511;47.970;11.774;2023-08-17T13:40:54;5.63;;;3.55;;
74158;SDS011;62511;47.970;11.774;2023-08-17T13:43:26;5.93;;;3.75;;
74158;SDS011;62511;47.970;11.774;2023-08-17T13:46:01;4.13;;;3.63;;
74158;SDS011;62511;47.970;11.774;2023-08-17T13:48:37;3.88;;;3.53;;
74158;SDS011;62511;47.970;11.774;2023-08-17T13:51:06;5.05;;;3.20;;
74158;SDS011;62511;47.970;11.774;2023-08-17T13:53:38;4.28;;;3.55;;
74158;SDS011;62511;47.970;11.774;2023-08-17T13:56:06;6.60;;;3.88;;
74158;SDS011;62511;47.970;11.774;2023-08-17T13:58:55;7.10;;;3.65;;
74158;SDS011;62511;47.970;11.774;2023-08-17T14:01:23;3.55;;;3.25;;
74158;SDS011;62511;47.970;11.774;2023-08-17T14:03:59;4.07;;;3.67;;
74158;SDS011;62511;47.970;11.774;2023-08-17T14:06:34;3.92;;;3.30;;
74158;SDS011;62511;47.970;11.774;2023-08-17T14:09:04;5.05;;;3.42;;
74158;SDS011;62511;47.970;11.774;2023-08-17T14:11:44;3.88;;;3.47;;
74158;SDS011;62511;47.970;11.774;2023-08-17T14:14:11;4.22;;;3.50;;
74158;SDS011;62511;47.970;11.774;2023-08-17T14:16:37;4.03;;;3.47;;
74158;SDS011;62511;47.970;11.774;2023-08-17T14:21:31;5.07;;;4.32;;
74158;SDS011;62511;47.970;11.774;2023-08-17T14:23:57;5.65;;;4.20;;
74158;SDS011;62511;47.970;11.774;2023-08-17T14:26:24;4.88;;;4.38;;
74158;SDS011;62511;47.970;11.774;2023-08-17T14:28:51;4.60;;;3.63;;
74158;SDS011;62511;47.970;11.774;2023-08-17T14:31:17;5.72;;;4.53;;
74158;SDS011;62511;47.970;11.774;2023-08-17T14:33:49;5.03;;;3.85;;
74158;SDS011;62511;47.970;11.774;2023-08-17T14:36:15;5.28;;;3.47;;
74158;SDS011;62511;47.970;11.774;2023-08-17T14:38:44;4.35;;;3.95;;
74158;SDS011;62511;47.970;11.774;2023-08-17T14:41:28;6.03;;;3.83;;
74158;SDS011;62511;47.970;11.774;2023-08-17T14:43:58;5.57;;;4.20;;
74158;SDS011;62511;47.970;11.774;2023-08-17T14:49:15;4.53;;;3.95;;
74158;SDS011;62511;47.970;11.774;2023-08-17T14:51:41;5.07;;;3.80;;
74158;SDS011;62511;47.970;11.774;2023-08-17T14:54:18;4.18;;;3.78;;
74158;SDS011;62511;47.970;11.774;2023-08-17T14:56:47;4.32;;;3.30;;
74158;SDS011;62511;47.970;11.774;2023-08-17T14:59:13;3.83;;;3.35;;
74158;SDS011;62511;47.970;11.774;2023-08-17T15:01:44;4.63;;;3.40;;
74158;SDS011;62511;47.970;11.774;2023-08-17T15:04:43;5.07;;;4.15;;
74158;SDS011;62511;47.970;11.774;2023-08-17T15:07:32;5.22;;;4.10;;
74158;SDS011;62511;47.970;11.774;2023-08-17T15:10:19;4.93;;;4.13;;
74158;SDS011;62511;47.970;11.774;2023-08-17T15:12:48;6.00;;;4.40;;
74158;SDS011;62511;47.970;11.774;2023-08-17T15:15:14;4.97;;;4.13;;
74158;SDS011;62511;47.970;11.774;2023-08-17T15:17:59;4.82;;;4.25;;
74158;SDS011;62511;47.970;11.774;2023-08-17T15:20:30;5.30;;;4.75;;
74158;SDS011;62511;47.970;11.774;2023-08-17T15:23:04;4.93;;;4.13;;
74158;SDS011;62511;47.970;11.774;2023-08-17T15:25:37;4.97;;;4.07;;
74158;SDS011;62511;47.970;11.774;2023-08-17T15:28:08;7.03;;;4.75;;
74158;SDS011;62511;47.970;11.774;2023-08-17T15:31:04;5.78;;;5.03;;
74158;SDS011;62511;47.970;11.774;2023-08-17T15:33:46;5.10;;;4.60;;
74158;SDS011;62511;47.970;11.774;2023-08-17T15:36:15;5.22;;;4.28;;
74158;SDS011;62511;47.970;11.774;2023-08-17T15:39:05;5.50;;;4.72;;
74158;SDS011;62511;47.970;11.774;2023-08-17T15:42:04;7.57;;;4.75;;
74158;SDS011;62511;47.970;11.774;2023-08-17T15:44:30;5.22;;;4.60;;
74158;SDS011;62511;47.970;11.774;2023-08-17T15:46:58;6.65;;;5.35;;
74158;SDS011;62511;47.970;11.774;2023-08-17T15:49:35;6.85;;;5.28;;
74158;SDS011;62511;47.970;11.774;2023-08-17T15:55:15;5.25;;;4.47;;
74158;SDS011;62511;47.970;11.774;2023-08-17T15:57:59;5.50;;;5.00;;
74158;SDS011;62511;47.970;11.774;2023-08-17T16:03:22;5.25;;;4.75;;
74158;SDS011;62511;47.970;11.774;2023-08-17T16:05:49;4.75;;;4.35;;
74158;SDS011;62511;47.970;11.774;2023-08-17T16:08:15;6.20;;;4.80;;
74158;SDS011;62511;47.970;11.774;2023-08-17T16:13:26;4.88;;;4.38;;
74158;SDS011;62511;47.970;11.774;2023-08-17T16:16:10;6.15;;;4.63;;